sensor_id;sensor_type;location;lat;lon;timestamp;temperature;humidity
25951;DHT22;13748;52.240;6.002;2023-07-13T00:01:55;17.70;99.90
25951;DHT22;13748;52.240;6.002;2023-07-13T00:04:23;17.70;99.90
25951;DHT22;13748;52.240;6.002;2023-07-13T00:06:54;17.60;99.90
25951;DHT22;13748;52.240;6.002;2023-07-13T00:09:22;17.60;99.90
25951;DHT22;13748;52.240;6.002;2023-07-13T00:11:55;17.60;99.90
25951;DHT22;13748;52.240;6.002;2023-07-13T00:14:23;17.60;99.90
25951;DHT22;13748;52.240;6.002;2023-07-13T00:16:51;17.60;99.90
25951;DHT22;13748;52.240;6.002;2023-07-13T00:19:18;17.60;99.90
25951;DHT22;13748;52.240;6.002;2023-07-13T00:21:46;17.60;99.90
25951;DHT22;13748;52.240;6.002;2023-07-13T00:24:15;17.50;99.90
25951;DHT22;13748;52.240;6.002;2023-07-13T00:26:45;17.50;99.90
25951;DHT22;13748;52.240;6.002;2023-07-13T00:29:13;17.40;99.90
25951;DHT22;13748;52.240;6.002;2023-07-13T00:31:40;17.40;99.90
25951;DHT22;13748;52.240;6.002;2023-07-13T00:34:07;17.30;99.90
25951;DHT22;13748;52.240;6.002;2023-07-13T00:36:34;17.30;99.90
25951;DHT22;13748;52.240;6.002;2023-07-13T00:39:01;17.30;99.90
25951;DHT22;13748;52.240;6.002;2023-07-13T00:41:31;17.30;99.90
25951;DHT22;13748;52.240;6.002;2023-07-13T00:43:58;17.30;99.90
25951;DHT22;13748;52.240;6.002;2023-07-13T00:46:27;17.30;99.90
25951;DHT22;13748;52.240;6.002;2023-07-13T00:48:58;17.30;99.90
25951;DHT22;13748;52.240;6.002;2023-07-13T00:51:30;17.20;99.90
25951;DHT22;13748;52.240;6.002;2023-07-13T00:54:04;17.10;99.90
25951;DHT22;13748;52.240;6.002;2023-07-13T00:56:33;17.10;99.90
25951;DHT22;13748;52.240;6.002;2023-07-13T00:59:02;17.10;99.90
25951;DHT22;13748;52.240;6.002;2023-07-13T01:01:29;17.00;99.90
25951;DHT22;13748;52.240;6.002;2023-07-13T01:03:56;16.90;99.90
25951;DHT22;13748;52.240;6.002;2023-07-13T01:06:24;16.90;99.90
25951;DHT22;13748;52.240;6.002;2023-07-13T01:08:51;16.90;99.90
25951;DHT22;13748;52.240;6.002;2023-07-13T01:11:19;16.90;99.90
25951;DHT22;13748;52.240;6.002;2023-07-13T01:13:48;16.80;99.90
25951;DHT22;13748;52.240;6.002;2023-07-13T01:16:27;16.80;99.90
25951;DHT22;13748;52.240;6.002;2023-07-13T01:18:58;16.80;99.90
25951;DHT22;13748;52.240;6.002;2023-07-13T01:21:29;16.80;99.90
25951;DHT22;13748;52.240;6.002;2023-07-13T01:23:58;16.70;99.90
25951;DHT22;13748;52.240;6.002;2023-07-13T01:26:28;16.70;99.90
25951;DHT22;13748;52.240;6.002;2023-07-13T01:28:58;16.70;99.90
25951;DHT22;13748;52.240;6.002;2023-07-13T01:31:25;16.70;99.90
25951;DHT22;13748;52.240;6.002;2023-07-13T01:33:54;16.70;99.90
25951;DHT22;13748;52.240;6.002;2023-07-13T01:36:23;16.70;99.90
25951;DHT22;13748;52.240;6.002;2023-07-13T01:38:49;16.70;99.90
25951;DHT22;13748;52.240;6.002;2023-07-13T01:41:16;16.70;99.90
25951;DHT22;13748;52.240;6.002;2023-07-13T01:43:46;16.70;99.90
25951;DHT22;13748;52.240;6.002;2023-07-13T01:46:13;16.70;99.90
25951;DHT22;13748;52.240;6.002;2023-07-13T01:48:49;16.70;99.90
25951;DHT22;13748;52.240;6.002;2023-07-13T01:51:18;16.70;99.90
25951;DHT22;13748;52.240;6.002;2023-07-13T01:53:44;16.70;99.90
25951;DHT22;13748;52.240;6.002;2023-07-13T01:56:12;16.60;99.90
25951;DHT22;13748;52.240;6.002;2023-07-13T01:58:39;16.60;99.90
25951;DHT22;13748;52.240;6.002;2023-07-13T02:01:06;16.60;99.90
25951;DHT22;13748;52.240;6.002;2023-07-13T02:03:33;16.60;99.90
25951;DHT22;13748;52.240;6.002;2023-07-13T02:06:00;16.50;99.90
25951;DHT22;13748;52.240;6.002;2023-07-13T02:08:27;16.60;99.90
25951;DHT22;13748;52.240;6.002;2023-07-13T02:10:54;16.50;99.90
25951;DHT22;13748;52.240;6.002;2023-07-13T02:13:21;16.50;99.90
25951;DHT22;13748;52.240;6.002;2023-07-13T02:15:51;16.50;99.90
25951;DHT22;13748;52.240;6.002;2023-07-13T02:18:21;16.40;99.90
25951;DHT22;13748;52.240;6.002;2023-07-13T02:20:48;16.40;99.90
25951;DHT22;13748;52.240;6.002;2023-07-13T02:23:15;16.30;99.90
25951;DHT22;13748;52.240;6.002;2023-07-13T02:25:42;16.30;99.90
25951;DHT22;13748;52.240;6.002;2023-07-13T02:28:11;16.30;99.90
25951;DHT22;13748;52.240;6.002;2023-07-13T02:30:38;16.30;99.90
25951;DHT22;13748;52.240;6.002;2023-07-13T02:33:05;16.30;99.90
25951;DHT22;13748;52.240;6.002;2023-07-13T02:35:32;16.20;99.90
25951;DHT22;13748;52.240;6.002;2023-07-13T02:37:59;16.20;99.90
25951;DHT22;13748;52.240;6.002;2023-07-13T02:40:26;16.20;99.90
25951;DHT22;13748;52.240;6.002;2023-07-13T02:42:53;16.10;99.90
25951;DHT22;13748;52.240;6.002;2023-07-13T02:45:20;16.10;99.90
25951;DHT22;13748;52.240;6.002;2023-07-13T02:47:47;16.10;99.90
25951;DHT22;13748;52.240;6.002;2023-07-13T02:50:14;16.00;99.90
25951;DHT22;13748;52.240;6.002;2023-07-13T02:52:43;16.00;99.90
25951;DHT22;13748;52.240;6.002;2023-07-13T02:55:10;16.00;99.90
25951;DHT22;13748;52.240;6.002;2023-07-13T02:57:37;15.90;99.90
25951;DHT22;13748;52.240;6.002;2023-07-13T03:00:07;15.90;99.90
25951;DHT22;13748;52.240;6.002;2023-07-13T03:02:35;15.90;99.90
25951;DHT22;13748;52.240;6.002;2023-07-13T03:05:02;15.90;99.90
25951;DHT22;13748;52.240;6.002;2023-07-13T03:07:30;15.80;99.90
25951;DHT22;13748;52.240;6.002;2023-07-13T03:09:58;15.80;99.90
25951;DHT22;13748;52.240;6.002;2023-07-13T03:12:26;15.80;99.90
25951;DHT22;13748;52.240;6.002;2023-07-13T03:14:52;15.80;99.90
25951;DHT22;13748;52.240;6.002;2023-07-13T03:17:19;15.80;99.90
25951;DHT22;13748;52.240;6.002;2023-07-13T03:19:49;15.80;99.90
25951;DHT22;13748;52.240;6.002;2023-07-13T03:22:18;15.70;99.90
25951;DHT22;13748;52.240;6.002;2023-07-13T03:24:45;15.70;99.90
25951;DHT22;13748;52.240;6.002;2023-07-13T03:27:12;15.70;99.90
25951;DHT22;13748;52.240;6.002;2023-07-13T03:29:39;15.70;99.90
25951;DHT22;13748;52.240;6.002;2023-07-13T03:32:07;15.70;99.90
25951;DHT22;13748;52.240;6.002;2023-07-13T03:34:34;15.70;99.90
25951;DHT22;13748;52.240;6.002;2023-07-13T03:37:01;15.60;99.90
25951;DHT22;13748;52.240;6.002;2023-07-13T03:39:28;15.60;99.90
25951;DHT22;13748;52.240;6.002;2023-07-13T03:41:55;15.60;99.90
25951;DHT22;13748;52.240;6.002;2023-07-13T03:44:22;15.60;99.90
25951;DHT22;13748;52.240;6.002;2023-07-13T03:46:49;15.70;99.90
25951;DHT22;13748;52.240;6.002;2023-07-13T03:49:16;15.60;99.90
25951;DHT22;13748;52.240;6.002;2023-07-13T03:51:43;15.60;99.90
25951;DHT22;13748;52.240;6.002;2023-07-13T03:54:10;15.60;99.90
25951;DHT22;13748;52.240;6.002;2023-07-13T03:56:37;15.50;99.90
25951;DHT22;13748;52.240;6.002;2023-07-13T03:59:04;15.50;99.90
25951;DHT22;13748;52.240;6.002;2023-07-13T04:01:31;15.60;99.90
25951;DHT22;13748;52.240;6.002;2023-07-13T04:03:58;15.60;99.90
25951;DHT22;13748;52.240;6.002;2023-07-13T04:06:30;15.50;99.90
25951;DHT22;13748;52.240;6.002;2023-07-13T04:09:02;15.50;99.90
25951;DHT22;13748;52.240;6.002;2023-07-13T04:11:31;15.50;99.90
25951;DHT22;13748;52.240;6.002;2023-07-13T04:14:04;15.60;99.90
25951;DHT22;13748;52.240;6.002;2023-07-13T04:16:31;15.60;99.90
25951;DHT22;13748;52.240;6.002;2023-07-13T04:18:59;15.60;99.90
25951;DHT22;13748;52.240;6.002;2023-07-13T04:21:29;15.60;99.90
25951;DHT22;13748;52.240;6.002;2023-07-13T04:23:56;15.60;99.90
25951;DHT22;13748;52.240;6.002;2023-07-13T04:26:26;15.60;99.90
25951;DHT22;13748;52.240;6.002;2023-07-13T04:28:53;15.60;99.90
25951;DHT22;13748;52.240;6.002;2023-07-13T04:31:20;15.60;99.90
25951;DHT22;13748;52.240;6.002;2023-07-13T04:33:49;15.70;99.90
25951;DHT22;13748;52.240;6.002;2023-07-13T04:36:16;15.70;99.90
25951;DHT22;13748;52.240;6.002;2023-07-13T04:38:43;15.70;99.90
25951;DHT22;13748;52.240;6.002;2023-07-13T04:41:11;15.80;99.90
25951;DHT22;13748;52.240;6.002;2023-07-13T04:43:38;15.80;99.90
25951;DHT22;13748;52.240;6.002;2023-07-13T04:46:07;15.80;99.90
25951;DHT22;13748;52.240;6.002;2023-07-13T04:48:35;15.80;99.90
25951;DHT22;13748;52.240;6.002;2023-07-13T04:51:03;15.80;99.90
25951;DHT22;13748;52.240;6.002;2023-07-13T04:53:30;15.80;99.90
25951;DHT22;13748;52.240;6.002;2023-07-13T04:55:57;15.90;99.90
25951;DHT22;13748;52.240;6.002;2023-07-13T04:58:25;15.80;99.90
25951;DHT22;13748;52.240;6.002;2023-07-13T05:00:52;15.90;99.90
25951;DHT22;13748;52.240;6.002;2023-07-13T05:03:19;15.90;99.90
25951;DHT22;13748;52.240;6.002;2023-07-13T05:05:57;15.90;99.90
25951;DHT22;13748;52.240;6.002;2023-07-13T05:08:25;16.00;99.90
25951;DHT22;13748;52.240;6.002;2023-07-13T05:10:52;15.90;99.90
25951;DHT22;13748;52.240;6.002;2023-07-13T05:13:19;16.20;99.90
25951;DHT22;13748;52.240;6.002;2023-07-13T05:16:01;16.10;99.90
25951;DHT22;13748;52.240;6.002;2023-07-13T05:18:29;16.20;99.90
25951;DHT22;13748;52.240;6.002;2023-07-13T05:21:06;16.30;99.90
25951;DHT22;13748;52.240;6.002;2023-07-13T05:23:34;16.40;99.90
25951;DHT22;13748;52.240;6.002;2023-07-13T05:26:03;16.50;99.90
25951;DHT22;13748;52.240;6.002;2023-07-13T05:28:34;16.50;99.90
25951;DHT22;13748;52.240;6.002;2023-07-13T05:31:01;16.60;99.90
25951;DHT22;13748;52.240;6.002;2023-07-13T05:33:28;16.80;99.90
25951;DHT22;13748;52.240;6.002;2023-07-13T05:35:55;17.00;99.90
25951;DHT22;13748;52.240;6.002;2023-07-13T05:38:22;17.40;99.90
25951;DHT22;13748;52.240;6.002;2023-07-13T05:40:50;17.50;99.90
25951;DHT22;13748;52.240;6.002;2023-07-13T05:43:17;17.70;99.90
25951;DHT22;13748;52.240;6.002;2023-07-13T05:45:47;18.20;99.90
25951;DHT22;13748;52.240;6.002;2023-07-13T05:48:14;18.50;99.90
25951;DHT22;13748;52.240;6.002;2023-07-13T05:50:41;19.00;99.90
25951;DHT22;13748;52.240;6.002;2023-07-13T05:53:07;20.10;99.90
25951;DHT22;13748;52.240;6.002;2023-07-13T05:55:35;20.30;99.90
25951;DHT22;13748;52.240;6.002;2023-07-13T05:58:01;20.60;99.90
25951;DHT22;13748;52.240;6.002;2023-07-13T06:00:28;21.00;99.90
25951;DHT22;13748;52.240;6.002;2023-07-13T06:02:56;21.20;99.90
25951;DHT22;13748;52.240;6.002;2023-07-13T06:05:25;21.20;99.90
25951;DHT22;13748;52.240;6.002;2023-07-13T06:07:52;21.20;99.90
25951;DHT22;13748;52.240;6.002;2023-07-13T06:10:19;21.30;99.90
25951;DHT22;13748;52.240;6.002;2023-07-13T06:12:46;21.40;99.90
25951;DHT22;13748;52.240;6.002;2023-07-13T06:15:13;22.00;99.90
25951;DHT22;13748;52.240;6.002;2023-07-13T06:17:44;21.80;99.90
25951;DHT22;13748;52.240;6.002;2023-07-13T06:20:11;22.10;99.90
25951;DHT22;13748;52.240;6.002;2023-07-13T06:22:38;22.10;99.90
25951;DHT22;13748;52.240;6.002;2023-07-13T06:25:06;22.30;99.90
25951;DHT22;13748;52.240;6.002;2023-07-13T06:27:33;22.40;99.90
25951;DHT22;13748;52.240;6.002;2023-07-13T06:30:00;22.80;99.90
25951;DHT22;13748;52.240;6.002;2023-07-13T06:32:28;23.10;99.90
25951;DHT22;13748;52.240;6.002;2023-07-13T06:34:55;23.40;99.90
25951;DHT22;13748;52.240;6.002;2023-07-13T06:37:22;23.50;99.90
25951;DHT22;13748;52.240;6.002;2023-07-13T06:39:49;23.60;99.90
25951;DHT22;13748;52.240;6.002;2023-07-13T06:42:16;23.90;99.90
25951;DHT22;13748;52.240;6.002;2023-07-13T06:44:44;23.90;99.90
25951;DHT22;13748;52.240;6.002;2023-07-13T06:47:11;24.10;99.90
25951;DHT22;13748;52.240;6.002;2023-07-13T06:49:38;24.50;99.90
25951;DHT22;13748;52.240;6.002;2023-07-13T06:52:05;24.20;99.90
25951;DHT22;13748;52.240;6.002;2023-07-13T06:54:32;23.80;99.90
25951;DHT22;13748;52.240;6.002;2023-07-13T06:56:59;23.80;99.90
25951;DHT22;13748;52.240;6.002;2023-07-13T06:59:25;23.90;99.90
25951;DHT22;13748;52.240;6.002;2023-07-13T07:01:52;24.00;99.90
25951;DHT22;13748;52.240;6.002;2023-07-13T07:04:19;24.40;99.90
25951;DHT22;13748;52.240;6.002;2023-07-13T07:06:47;24.10;99.90
25951;DHT22;13748;52.240;6.002;2023-07-13T07:09:14;23.90;99.90
25951;DHT22;13748;52.240;6.002;2023-07-13T07:11:42;23.90;99.90
25951;DHT22;13748;52.240;6.002;2023-07-13T07:14:28;24.00;99.90
25951;DHT22;13748;52.240;6.002;2023-07-13T07:16:55;23.70;99.90
25951;DHT22;13748;52.240;6.002;2023-07-13T07:19:22;23.70;99.90
25951;DHT22;13748;52.240;6.002;2023-07-13T07:21:49;23.80;99.90
25951;DHT22;13748;52.240;6.002;2023-07-13T07:24:16;24.10;99.90
25951;DHT22;13748;52.240;6.002;2023-07-13T07:26:42;24.60;99.90
25951;DHT22;13748;52.240;6.002;2023-07-13T07:31:42;25.30;99.90
25951;DHT22;13748;52.240;6.002;2023-07-13T07:34:12;25.30;99.90
25951;DHT22;13748;52.240;6.002;2023-07-13T07:36:39;25.40;99.90
25951;DHT22;13748;52.240;6.002;2023-07-13T07:39:09;25.50;99.90
25951;DHT22;13748;52.240;6.002;2023-07-13T07:41:35;25.60;99.90
25951;DHT22;13748;52.240;6.002;2023-07-13T07:44:05;25.60;99.90
25951;DHT22;13748;52.240;6.002;2023-07-13T07:46:34;25.30;99.90
25951;DHT22;13748;52.240;6.002;2023-07-13T07:49:01;25.30;99.90
25951;DHT22;13748;52.240;6.002;2023-07-13T07:51:28;25.40;99.90
25951;DHT22;13748;52.240;6.002;2023-07-13T07:53:55;25.60;99.90
25951;DHT22;13748;52.240;6.002;2023-07-13T07:56:22;26.00;99.90
25951;DHT22;13748;52.240;6.002;2023-07-13T07:58:52;26.20;99.90
25951;DHT22;13748;52.240;6.002;2023-07-13T08:01:22;26.30;99.90
25951;DHT22;13748;52.240;6.002;2023-07-13T08:03:52;26.00;99.90
25951;DHT22;13748;52.240;6.002;2023-07-13T08:06:21;25.40;99.90
25951;DHT22;13748;52.240;6.002;2023-07-13T08:08:52;24.80;99.90
25951;DHT22;13748;52.240;6.002;2023-07-13T08:11:21;24.70;99.90
25951;DHT22;13748;52.240;6.002;2023-07-13T08:13:50;24.90;99.90
25951;DHT22;13748;52.240;6.002;2023-07-13T08:16:24;25.20;99.90
25951;DHT22;13748;52.240;6.002;2023-07-13T08:18:51;25.40;99.90
25951;DHT22;13748;52.240;6.002;2023-07-13T08:21:18;25.20;99.90
25951;DHT22;13748;52.240;6.002;2023-07-13T08:23:46;24.70;99.90
25951;DHT22;13748;52.240;6.002;2023-07-13T08:26:13;24.40;99.90
25951;DHT22;13748;52.240;6.002;2023-07-13T08:28:41;23.70;99.90
25951;DHT22;13748;52.240;6.002;2023-07-13T08:31:08;23.50;99.90
25951;DHT22;13748;52.240;6.002;2023-07-13T08:33:36;23.20;99.90
25951;DHT22;13748;52.240;6.002;2023-07-13T08:36:04;23.00;99.90
25951;DHT22;13748;52.240;6.002;2023-07-13T08:38:32;22.80;99.90
25951;DHT22;13748;52.240;6.002;2023-07-13T08:40:59;22.50;99.90
25951;DHT22;13748;52.240;6.002;2023-07-13T08:43:30;22.40;99.90
25951;DHT22;13748;52.240;6.002;2023-07-13T08:46:15;22.30;99.90
25951;DHT22;13748;52.240;6.002;2023-07-13T08:48:57;22.60;99.90
25951;DHT22;13748;52.240;6.002;2023-07-13T08:54:02;23.60;99.90
25951;DHT22;13748;52.240;6.002;2023-07-13T08:56:31;23.90;99.90
25951;DHT22;13748;52.240;6.002;2023-07-13T08:59:01;24.10;99.90
25951;DHT22;13748;52.240;6.002;2023-07-13T09:02:08;24.20;99.90
25951;DHT22;13748;52.240;6.002;2023-07-13T09:04:52;24.50;99.90
25951;DHT22;13748;52.240;6.002;2023-07-13T09:15:44;24.80;99.90
25951;DHT22;13748;52.240;6.002;2023-07-13T09:18:25;24.90;99.90
25951;DHT22;13748;52.240;6.002;2023-07-13T09:20:59;25.10;99.90
25951;DHT22;13748;52.240;6.002;2023-07-13T09:23:30;25.20;99.90
25951;DHT22;13748;52.240;6.002;2023-07-13T09:26:14;25.10;99.90
25951;DHT22;13748;52.240;6.002;2023-07-13T09:28:43;24.50;99.90
25951;DHT22;13748;52.240;6.002;2023-07-13T09:31:17;24.10;99.90
25951;DHT22;13748;52.240;6.002;2023-07-13T09:33:45;23.90;99.90
25951;DHT22;13748;52.240;6.002;2023-07-13T09:36:25;23.80;99.90
25951;DHT22;13748;52.240;6.002;2023-07-13T09:39:23;23.90;99.90
25951;DHT22;13748;52.240;6.002;2023-07-13T09:42:00;23.70;99.90
25951;DHT22;13748;52.240;6.002;2023-07-13T09:44:31;23.40;99.90
25951;DHT22;13748;52.240;6.002;2023-07-13T09:47:00;23.20;99.90
25951;DHT22;13748;52.240;6.002;2023-07-13T09:49:34;22.80;99.90
25951;DHT22;13748;52.240;6.002;2023-07-13T09:52:10;22.50;99.90
25951;DHT22;13748;52.240;6.002;2023-07-13T09:54:37;22.00;99.90
25951;DHT22;13748;52.240;6.002;2023-07-13T09:57:13;21.50;99.90
25951;DHT22;13748;52.240;6.002;2023-07-13T09:59:44;21.40;99.90
25951;DHT22;13748;52.240;6.002;2023-07-13T10:02:34;21.30;99.90
25951;DHT22;13748;52.240;6.002;2023-07-13T10:05:06;21.20;99.90
25951;DHT22;13748;52.240;6.002;2023-07-13T10:07:39;21.80;99.90
25951;DHT22;13748;52.240;6.002;2023-07-13T10:10:17;22.30;99.90
25951;DHT22;13748;52.240;6.002;2023-07-13T10:12:47;22.60;99.90
25951;DHT22;13748;52.240;6.002;2023-07-13T10:15:17;22.60;99.90
25951;DHT22;13748;52.240;6.002;2023-07-13T10:17:55;23.10;99.90
25951;DHT22;13748;52.240;6.002;2023-07-13T10:20:26;23.20;99.90
25951;DHT22;13748;52.240;6.002;2023-07-13T10:25:34;23.50;99.90
25951;DHT22;13748;52.240;6.002;2023-07-13T10:28:25;23.80;99.90
25951;DHT22;13748;52.240;6.002;2023-07-13T10:30:56;23.80;99.90
25951;DHT22;13748;52.240;6.002;2023-07-13T10:33:24;24.00;99.90
25951;DHT22;13748;52.240;6.002;2023-07-13T10:36:03;24.00;99.90
25951;DHT22;13748;52.240;6.002;2023-07-13T10:38:32;24.10;99.90
25951;DHT22;13748;52.240;6.002;2023-07-13T10:41:05;24.40;99.90
25951;DHT22;13748;52.240;6.002;2023-07-13T10:43:39;24.60;99.90
25951;DHT22;13748;52.240;6.002;2023-07-13T10:46:11;24.40;99.90
25951;DHT22;13748;52.240;6.002;2023-07-13T10:48:40;24.20;99.90
25951;DHT22;13748;52.240;6.002;2023-07-13T10:51:10;23.80;99.90
25951;DHT22;13748;52.240;6.002;2023-07-13T10:53:39;23.20;99.90
25951;DHT22;13748;52.240;6.002;2023-07-13T10:56:28;22.50;99.90
25951;DHT22;13748;52.240;6.002;2023-07-13T10:59:20;22.10;99.90
25951;DHT22;13748;52.240;6.002;2023-07-13T11:01:56;21.80;99.90
25951;DHT22;13748;52.240;6.002;2023-07-13T11:04:26;21.80;99.90
25951;DHT22;13748;52.240;6.002;2023-07-13T11:06:58;21.80;99.90
25951;DHT22;13748;52.240;6.002;2023-07-13T11:09:37;22.00;99.90
25951;DHT22;13748;52.240;6.002;2023-07-13T11:14:42;22.10;99.90
25951;DHT22;13748;52.240;6.002;2023-07-13T11:22:46;22.60;99.90
25951;DHT22;13748;52.240;6.002;2023-07-13T11:25:21;22.80;99.90
25951;DHT22;13748;52.240;6.002;2023-07-13T11:33:49;23.40;99.90
25951;DHT22;13748;52.240;6.002;2023-07-13T11:36:17;23.60;99.90
25951;DHT22;13748;52.240;6.002;2023-07-13T11:39:18;23.90;99.90
25951;DHT22;13748;52.240;6.002;2023-07-13T11:41:51;23.80;99.90
25951;DHT22;13748;52.240;6.002;2023-07-13T11:44:21;23.60;99.90
25951;DHT22;13748;52.240;6.002;2023-07-13T11:46:56;23.50;99.90
25951;DHT22;13748;52.240;6.002;2023-07-13T11:49:30;23.40;99.90
25951;DHT22;13748;52.240;6.002;2023-07-13T11:51:59;23.50;99.90
25951;DHT22;13748;52.240;6.002;2023-07-13T11:54:32;23.90;99.90
25951;DHT22;13748;52.240;6.002;2023-07-13T11:57:03;24.20;99.90
25951;DHT22;13748;52.240;6.002;2023-07-13T11:59:38;24.10;99.90
25951;DHT22;13748;52.240;6.002;2023-07-13T12:02:25;24.30;99.90
25951;DHT22;13748;52.240;6.002;2023-07-13T12:04:53;24.50;99.90
25951;DHT22;13748;52.240;6.002;2023-07-13T12:07:29;24.50;99.90
25951;DHT22;13748;52.240;6.002;2023-07-13T12:13:43;24.40;99.90
25951;DHT22;13748;52.240;6.002;2023-07-13T12:16:30;24.60;99.90
25951;DHT22;13748;52.240;6.002;2023-07-13T12:19:00;24.90;99.90
25951;DHT22;13748;52.240;6.002;2023-07-13T12:21:36;25.00;99.90
25951;DHT22;13748;52.240;6.002;2023-07-13T12:24:17;25.00;99.90
25951;DHT22;13748;52.240;6.002;2023-07-13T12:26:51;25.30;99.90
25951;DHT22;13748;52.240;6.002;2023-07-13T12:29:33;25.10;99.90
25951;DHT22;13748;52.240;6.002;2023-07-13T12:32:00;24.80;99.90
25951;DHT22;13748;52.240;6.002;2023-07-13T12:34:27;24.70;99.90
25951;DHT22;13748;52.240;6.002;2023-07-13T12:37:33;24.60;99.90
25951;DHT22;13748;52.240;6.002;2023-07-13T12:40:05;24.30;99.90
25951;DHT22;13748;52.240;6.002;2023-07-13T12:42:59;24.10;99.90
25951;DHT22;13748;52.240;6.002;2023-07-13T12:45:32;23.90;99.90
25951;DHT22;13748;52.240;6.002;2023-07-13T12:48:05;23.60;99.90
25951;DHT22;13748;52.240;6.002;2023-07-13T12:50:41;23.70;99.90
25951;DHT22;13748;52.240;6.002;2023-07-13T12:53:20;23.70;99.90
25951;DHT22;13748;52.240;6.002;2023-07-13T12:58:28;23.50;99.90
25951;DHT22;13748;52.240;6.002;2023-07-13T13:01:01;23.50;99.90
25951;DHT22;13748;52.240;6.002;2023-07-13T13:04:00;23.50;99.90
25951;DHT22;13748;52.240;6.002;2023-07-13T13:06:29;23.50;99.90
25951;DHT22;13748;52.240;6.002;2023-07-13T13:08:58;23.40;99.90
25951;DHT22;13748;52.240;6.002;2023-07-13T13:11:27;23.40;99.90
25951;DHT22;13748;52.240;6.002;2023-07-13T13:13:54;23.50;99.90
25951;DHT22;13748;52.240;6.002;2023-07-13T13:16:31;23.60;99.90
25951;DHT22;13748;52.240;6.002;2023-07-13T13:19:30;23.90;99.90
25951;DHT22;13748;52.240;6.002;2023-07-13T13:21:57;24.30;99.90
25951;DHT22;13748;52.240;6.002;2023-07-13T13:24:27;24.50;99.90
25951;DHT22;13748;52.240;6.002;2023-07-13T13:26:54;24.50;99.90
25951;DHT22;13748;52.240;6.002;2023-07-13T13:29:24;24.70;99.90
25951;DHT22;13748;52.240;6.002;2023-07-13T13:31:52;24.80;99.90
25951;DHT22;13748;52.240;6.002;2023-07-13T13:34:20;24.60;99.90
25951;DHT22;13748;52.240;6.002;2023-07-13T13:36:50;24.70;99.90
25951;DHT22;13748;52.240;6.002;2023-07-13T13:39:35;24.80;99.90
25951;DHT22;13748;52.240;6.002;2023-07-13T13:42:03;24.90;99.90
25951;DHT22;13748;52.240;6.002;2023-07-13T13:44:30;25.10;99.90
25951;DHT22;13748;52.240;6.002;2023-07-13T13:46:59;24.90;99.90
25951;DHT22;13748;52.240;6.002;2023-07-13T13:49:27;24.90;99.90
25951;DHT22;13748;52.240;6.002;2023-07-13T13:51:55;24.80;99.90
25951;DHT22;13748;52.240;6.002;2023-07-13T13:54:23;24.50;99.90
25951;DHT22;13748;52.240;6.002;2023-07-13T13:56:52;24.40;99.90
25951;DHT22;13748;52.240;6.002;2023-07-13T13:59:24;24.30;99.90
25951;DHT22;13748;52.240;6.002;2023-07-13T14:02:20;24.30;99.90
25951;DHT22;13748;52.240;6.002;2023-07-13T14:04:52;24.40;99.90
25951;DHT22;13748;52.240;6.002;2023-07-13T14:07:21;24.50;99.90
25951;DHT22;13748;52.240;6.002;2023-07-13T14:09:48;24.20;99.90
25951;DHT22;13748;52.240;6.002;2023-07-13T14:12:15;24.20;99.90
25951;DHT22;13748;52.240;6.002;2023-07-13T14:14:42;24.20;99.90
25951;DHT22;13748;52.240;6.002;2023-07-13T14:17:21;24.20;99.90
25951;DHT22;13748;52.240;6.002;2023-07-13T14:19:50;24.30;99.90
25951;DHT22;13748;52.240;6.002;2023-07-13T14:22:20;24.50;99.90
25951;DHT22;13748;52.240;6.002;2023-07-13T14:24:47;24.60;99.90
25951;DHT22;13748;52.240;6.002;2023-07-13T14:27:15;24.40;99.90
25951;DHT22;13748;52.240;6.002;2023-07-13T14:29:41;24.30;99.90
25951;DHT22;13748;52.240;6.002;2023-07-13T14:32:11;24.30;99.90
25951;DHT22;13748;52.240;6.002;2023-07-13T14:34:39;24.50;99.90
25951;DHT22;13748;52.240;6.002;2023-07-13T14:37:13;24.70;99.90
25951;DHT22;13748;52.240;6.002;2023-07-13T14:39:43;25.00;99.90
25951;DHT22;13748;52.240;6.002;2023-07-13T14:42:10;25.10;99.90
25951;DHT22;13748;52.240;6.002;2023-07-13T14:44:38;25.40;99.90
25951;DHT22;13748;52.240;6.002;2023-07-13T14:47:05;25.40;99.90
25951;DHT22;13748;52.240;6.002;2023-07-13T14:49:42;25.50;99.90
25951;DHT22;13748;52.240;6.002;2023-07-13T14:52:21;25.40;99.90
25951;DHT22;13748;52.240;6.002;2023-07-13T14:54:53;25.20;99.90
25951;DHT22;13748;52.240;6.002;2023-07-13T14:57:21;24.90;99.90
25951;DHT22;13748;52.240;6.002;2023-07-13T14:59:48;24.70;99.90
25951;DHT22;13748;52.240;6.002;2023-07-13T15:02:27;24.70;99.90
25951;DHT22;13748;52.240;6.002;2023-07-13T15:04:58;24.60;99.90
25951;DHT22;13748;52.240;6.002;2023-07-13T15:07:25;24.60;99.90
25951;DHT22;13748;52.240;6.002;2023-07-13T15:09:52;24.60;99.90
25951;DHT22;13748;52.240;6.002;2023-07-13T15:12:19;24.50;99.90
25951;DHT22;13748;52.240;6.002;2023-07-13T15:14:46;24.40;99.90
25951;DHT22;13748;52.240;6.002;2023-07-13T15:17:28;24.40;99.90
25951;DHT22;13748;52.240;6.002;2023-07-13T15:19:58;24.30;99.90
25951;DHT22;13748;52.240;6.002;2023-07-13T15:22:26;24.30;99.90
25951;DHT22;13748;52.240;6.002;2023-07-13T15:24:53;24.30;99.90
25951;DHT22;13748;52.240;6.002;2023-07-13T15:27:22;24.30;99.90
25951;DHT22;13748;52.240;6.002;2023-07-13T15:29:49;24.20;99.90
25951;DHT22;13748;52.240;6.002;2023-07-13T15:32:16;24.40;99.90
25951;DHT22;13748;52.240;6.002;2023-07-13T15:34:44;24.40;99.90
25951;DHT22;13748;52.240;6.002;2023-07-13T15:37:15;24.40;99.90
25951;DHT22;13748;52.240;6.002;2023-07-13T15:39:42;24.50;99.90
25951;DHT22;13748;52.240;6.002;2023-07-13T15:42:17;24.50;99.90
25951;DHT22;13748;52.240;6.002;2023-07-13T15:44:45;24.50;99.90
25951;DHT22;13748;52.240;6.002;2023-07-13T15:47:14;24.70;99.90
25951;DHT22;13748;52.240;6.002;2023-07-13T15:49:42;24.80;99.90
25951;DHT22;13748;52.240;6.002;2023-07-13T15:52:21;24.90;99.90
25951;DHT22;13748;52.240;6.002;2023-07-13T15:54:49;24.90;99.90
25951;DHT22;13748;52.240;6.002;2023-07-13T15:57:17;24.80;99.90
25951;DHT22;13748;52.240;6.002;2023-07-13T15:59:44;24.70;99.90
25951;DHT22;13748;52.240;6.002;2023-07-13T16:02:19;24.60;99.90
25951;DHT22;13748;52.240;6.002;2023-07-13T16:04:47;24.60;99.90
25951;DHT22;13748;52.240;6.002;2023-07-13T16:07:16;24.80;99.90
25951;DHT22;13748;52.240;6.002;2023-07-13T16:09:49;24.70;99.90
25951;DHT22;13748;52.240;6.002;2023-07-13T16:12:18;24.80;99.90
25951;DHT22;13748;52.240;6.002;2023-07-13T16:14:45;24.80;99.90
25951;DHT22;13748;52.240;6.002;2023-07-13T16:17:13;24.70;99.90
25951;DHT22;13748;52.240;6.002;2023-07-13T16:19:41;24.70;99.90
25951;DHT22;13748;52.240;6.002;2023-07-13T16:22:15;24.70;99.90
25951;DHT22;13748;52.240;6.002;2023-07-13T16:24:43;24.70;99.90
25951;DHT22;13748;52.240;6.002;2023-07-13T16:27:12;24.70;99.90